createdAt,value
2023-02-17T00:00:22.122Z,1029.96
2023-02-17T00:01:22.758Z,1029.90
2023-02-17T00:02:23.385Z,1029.89
2023-02-17T00:03:24.053Z,1029.96
2023-02-17T00:04:24.706Z,1029.81
2023-02-17T00:05:25.352Z,1029.93
2023-02-17T00:06:25.963Z,1029.86
2023-02-17T00:07:26.556Z,1029.89
2023-02-17T00:08:27.156Z,1029.85
2023-02-17T00:09:27.755Z,1029.91
2023-02-17T00:10:28.409Z,1029.87
2023-02-17T00:11:29.017Z,1029.83
2023-02-17T00:12:29.617Z,1029.90
2023-02-17T00:13:30.262Z,1029.91
2023-02-17T00:14:30.862Z,1029.86
2023-02-17T00:15:31.598Z,1029.83
2023-02-17T00:16:33.095Z,1029.89
2023-02-17T00:17:33.692Z,1029.83
2023-02-17T00:18:34.296Z,1029.85
2023-02-17T00:19:34.901Z,1029.90
2023-02-17T00:20:35.509Z,1029.91
2023-02-17T00:21:36.164Z,1029.89
2023-02-17T00:22:36.769Z,1029.91
2023-02-17T00:23:37.365Z,1029.92
2023-02-17T00:24:37.969Z,1029.95
2023-02-17T00:25:38.582Z,1029.92
2023-02-17T00:26:39.168Z,1029.91
2023-02-17T00:27:39.768Z,1029.91
2023-02-17T00:28:40.364Z,1029.91
2023-02-17T00:29:40.969Z,1029.99
2023-02-17T00:30:41.626Z,1030.04
2023-02-17T00:31:43.407Z,1030.06
2023-02-17T00:32:44.105Z,1030.04
2023-02-17T00:33:44.708Z,1029.95
2023-02-17T00:34:45.363Z,1029.96
2023-02-17T00:35:45.963Z,1029.97
2023-02-17T00:50:01.598Z,1029.86
2023-02-17T00:51:02.194Z,1029.89
2023-02-17T00:52:02.798Z,1029.91
2023-02-17T00:53:03.398Z,1029.83
2023-02-17T00:54:03.994Z,1029.78
2023-02-17T00:55:04.591Z,1029.83
2023-02-17T00:56:05.512Z,1029.74
2023-02-17T01:22:07.565Z,1029.88
2023-02-17T01:24:46.445Z,1029.89
2023-02-17T01:28:55.167Z,1029.81
2023-02-17T01:29:55.786Z,1029.75
2023-02-17T01:30:56.427Z,1029.78
2023-02-17T01:31:57.078Z,1029.84
2023-02-17T01:32:57.937Z,1029.75
2023-02-17T01:33:58.537Z,1029.82
2023-02-17T01:35:12.454Z,1029.79
2023-02-17T01:36:13.051Z,1029.83
2023-02-17T01:37:13.659Z,1029.82
2023-02-17T01:38:14.846Z,1029.77
2023-02-17T01:39:40.035Z,1029.79
2023-02-17T01:41:13.208Z,1029.74
2023-02-17T01:43:14.429Z,1029.83
2023-02-17T01:44:15.021Z,1029.72
2023-02-17T01:46:16.310Z,1029.82
2023-02-17T01:47:16.908Z,1029.79
2023-02-17T01:48:17.503Z,1029.77
2023-02-17T01:49:18.956Z,1029.85
2023-02-17T01:55:45.886Z,1029.88
2023-02-17T01:56:46.490Z,1029.87
2023-02-17T01:57:47.088Z,1029.87
2023-02-17T01:59:00.400Z,1029.87
2023-02-17T02:00:01.054Z,1029.83
2023-02-17T02:01:14.404Z,1029.81
2023-02-17T02:02:28.450Z,1029.87
2023-02-17T02:03:29.039Z,1029.79
2023-02-17T02:04:29.706Z,1029.78
2023-02-17T02:05:30.315Z,1029.76
2023-02-17T02:07:56.904Z,1029.76
2023-02-17T02:08:57.500Z,1029.74
2023-02-17T02:09:58.104Z,1029.68
2023-02-17T02:13:08.779Z,1029.78
2023-02-17T02:17:29.399Z,1029.82
2023-02-17T02:18:30.815Z,1029.77
2023-02-17T02:19:51.986Z,1029.78
2023-02-17T02:21:05.398Z,1029.81
2023-02-17T02:22:19.425Z,1029.76
2023-02-17T02:23:20.023Z,1029.74
2023-02-17T02:24:20.624Z,1029.82
2023-02-17T02:26:06.173Z,1029.67
2023-02-17T02:27:21.214Z,1029.75
2023-02-17T02:28:21.822Z,1029.70
2023-02-17T02:29:38.997Z,1029.73
2023-02-17T02:30:39.727Z,1029.78
2023-02-17T02:31:40.366Z,1029.74
2023-02-17T02:32:40.959Z,1029.68
2023-02-17T02:34:10.146Z,1029.77
2023-02-17T02:35:10.785Z,1029.87
2023-02-17T02:36:11.741Z,1029.72
2023-02-17T02:37:12.376Z,1029.68
2023-02-17T02:38:12.963Z,1029.67
2023-02-17T02:39:13.619Z,1029.63
2023-02-17T02:40:14.215Z,1029.71
2023-02-17T02:41:14.812Z,1029.70
2023-02-17T02:42:15.405Z,1029.77
2023-02-17T02:43:16.013Z,1029.72
2023-02-17T02:44:16.616Z,1029.71
2023-02-17T02:45:17.217Z,1029.70
2023-02-17T02:46:31.277Z,1029.67
2023-02-17T02:47:45.285Z,1029.71
2023-02-17T02:48:45.892Z,1029.79
2023-02-17T02:49:46.568Z,1029.80
2023-02-17T02:50:47.236Z,1029.83
2023-02-17T02:51:47.833Z,1029.79
2023-02-17T02:53:01.269Z,1029.78
2023-02-17T02:54:15.280Z,1029.77
2023-02-17T02:56:08.490Z,1029.77
2023-02-17T02:57:09.137Z,1029.78
2023-02-17T02:58:09.730Z,1029.71
2023-02-17T02:59:11.184Z,1029.74
2023-02-17T03:00:12.395Z,1029.74
2023-02-17T03:01:26.725Z,1029.69
2023-02-17T03:02:27.359Z,1029.68
2023-02-17T03:03:28.011Z,1029.61
2023-02-17T03:04:28.606Z,1029.59
2023-02-17T03:05:29.203Z,1029.64
2023-02-17T03:06:29.854Z,1029.52
2023-02-17T03:08:07.849Z,1029.63
2023-02-17T03:09:08.443Z,1029.57
2023-02-17T03:10:09.041Z,1029.58
2023-02-17T03:12:51.658Z,1029.58
2023-02-17T03:16:10.877Z,1029.49
2023-02-17T03:17:28.041Z,1029.61
2023-02-17T03:18:28.642Z,1029.59
2023-02-17T03:19:57.818Z,1029.56
2023-02-17T03:22:52.197Z,1029.59
2023-02-17T03:23:52.808Z,1029.57
2023-02-17T03:27:32.840Z,1029.58
2023-02-17T03:31:32.814Z,1029.71
2023-02-17T03:32:33.386Z,1029.64
2023-02-17T03:36:49.484Z,1029.61
2023-02-17T03:37:50.192Z,1029.48
2023-02-17T03:39:31.399Z,1029.42
2023-02-17T03:41:00.657Z,1029.47
2023-02-17T03:42:01.264Z,1029.40
2023-02-17T03:43:01.858Z,1029.47
2023-02-17T03:44:02.464Z,1029.47
2023-02-17T03:45:03.069Z,1029.54
2023-02-17T03:46:03.749Z,1029.39
2023-02-17T03:47:05.260Z,1029.43
2023-02-17T03:48:05.903Z,1029.41
2023-02-17T03:49:06.499Z,1029.45
2023-02-17T03:50:07.111Z,1029.37
2023-02-17T03:51:07.691Z,1029.41
2023-02-17T03:52:08.286Z,1029.46
2023-02-17T03:53:08.892Z,1029.49
2023-02-17T03:54:09.491Z,1029.43
2023-02-17T03:55:10.094Z,1029.57
2023-02-17T03:56:10.690Z,1029.52
2023-02-17T03:57:11.293Z,1029.55
2023-02-17T03:58:11.902Z,1029.57
2023-02-17T03:59:12.579Z,1029.53
2023-02-17T04:00:13.165Z,1029.51
2023-02-17T04:01:14.613Z,1029.50
2023-02-17T04:02:15.216Z,1029.52
2023-02-17T04:03:15.874Z,1029.51
2023-02-17T04:04:16.499Z,1029.50
2023-02-17T04:05:17.109Z,1029.50
2023-02-17T04:06:17.704Z,1029.50
2023-02-17T04:07:18.299Z,1029.46
2023-02-17T04:08:18.905Z,1029.44
2023-02-17T04:09:19.621Z,1029.39
2023-02-17T04:10:20.280Z,1029.45
2023-02-17T04:11:20.892Z,1029.49
2023-02-17T04:12:21.500Z,1029.50
2023-02-17T04:13:22.902Z,1029.47
2023-02-17T04:14:23.500Z,1029.44
2023-02-17T04:15:24.133Z,1029.46
2023-02-17T04:16:24.739Z,1029.51
2023-02-17T04:17:25.344Z,1029.51
2023-02-17T04:18:25.945Z,1029.44
2023-02-17T04:19:26.541Z,1029.43
2023-02-17T04:20:27.146Z,1029.42
2023-02-17T04:21:27.742Z,1029.39
2023-02-17T04:22:28.345Z,1029.38
2023-02-17T04:23:28.942Z,1029.40
2023-02-17T04:24:29.543Z,1029.40
2023-02-17T04:25:30.146Z,1029.39
2023-02-17T04:26:30.751Z,1029.33
2023-02-17T04:27:31.352Z,1029.42
2023-02-17T04:28:31.956Z,1029.40
2023-02-17T04:29:32.557Z,1029.46
2023-02-17T04:30:33.202Z,1029.43
2023-02-17T04:31:33.958Z,1029.47
2023-02-17T04:32:34.631Z,1029.47
2023-02-17T04:33:35.228Z,1029.46
2023-02-17T04:34:35.821Z,1029.47
2023-02-17T04:35:36.429Z,1029.40
2023-02-17T04:36:37.012Z,1029.39
2023-02-17T04:37:37.610Z,1029.51
2023-02-17T04:38:38.202Z,1029.41
2023-02-17T04:39:38.808Z,1029.53
2023-02-17T04:40:39.480Z,1029.50
2023-02-17T04:41:40.089Z,1029.43
2023-02-17T04:42:40.759Z,1029.46
2023-02-17T04:43:41.507Z,1029.45
2023-02-17T04:44:42.198Z,1029.42
2023-02-17T04:45:42.886Z,1029.46
2023-02-17T04:46:43.477Z,1029.49
2023-02-17T04:47:44.882Z,1029.51
2023-02-17T04:48:45.485Z,1029.47
2023-02-17T04:49:46.090Z,1029.49
2023-02-17T04:50:46.685Z,1029.58
2023-02-17T04:51:48.081Z,1029.59
2023-02-17T04:52:48.685Z,1029.53
2023-02-17T04:53:49.291Z,1029.54
2023-02-17T04:54:50.743Z,1029.51
2023-02-17T04:55:51.343Z,1029.58
2023-02-17T04:56:51.937Z,1029.57
2023-02-17T04:57:52.536Z,1029.51
2023-02-17T04:58:53.128Z,1029.53
2023-02-17T04:59:53.729Z,1029.57
2023-02-17T05:00:54.326Z,1029.49
2023-02-17T05:01:55.843Z,1029.55
2023-02-17T05:02:56.500Z,1029.53
2023-02-17T05:03:57.104Z,1029.47
2023-02-17T05:04:57.760Z,1029.54
2023-02-17T05:05:58.437Z,1029.57
2023-02-17T05:06:59.036Z,1029.60
2023-02-17T05:07:59.637Z,1029.59
2023-02-17T05:09:00.233Z,1029.52
2023-02-17T05:10:00.841Z,1029.60
2023-02-17T05:11:01.443Z,1029.55
2023-02-17T05:12:02.151Z,1029.61
2023-02-17T05:13:02.755Z,1029.60
2023-02-17T05:14:03.373Z,1029.54
2023-02-17T05:15:04.073Z,1029.54
2023-02-17T05:16:05.164Z,1029.60
2023-02-17T05:17:05.945Z,1029.58
2023-02-17T05:18:06.535Z,1029.55
2023-02-17T05:19:07.141Z,1029.58
2023-02-17T05:20:07.736Z,1029.60
2023-02-17T05:21:08.338Z,1029.59
2023-02-17T05:22:08.946Z,1029.71
2023-02-17T05:23:09.609Z,1029.65
2023-02-17T05:24:10.212Z,1029.64
2023-02-17T05:25:10.816Z,1029.58
2023-02-17T05:26:11.408Z,1029.68
2023-02-17T05:27:11.998Z,1029.68
2023-02-17T05:28:12.595Z,1029.73
2023-02-17T05:29:13.262Z,1029.73
2023-02-17T05:30:13.912Z,1029.77
2023-02-17T05:31:14.610Z,1029.73
2023-02-17T05:32:15.259Z,1029.79
2023-02-17T05:33:15.849Z,1029.80
2023-02-17T05:34:16.452Z,1029.75
2023-02-17T05:35:17.057Z,1029.81
2023-02-17T05:36:17.651Z,1029.74
2023-02-17T05:37:18.252Z,1029.75
2023-02-17T05:38:18.844Z,1029.81
2023-02-17T05:39:19.450Z,1029.78
2023-02-17T05:40:20.054Z,1029.74
2023-02-17T05:41:20.651Z,1029.78
2023-02-17T05:42:21.264Z,1029.83
2023-02-17T05:43:21.892Z,1029.81
2023-02-17T05:44:22.487Z,1029.76
2023-02-17T05:45:23.086Z,1029.78
2023-02-17T05:46:23.720Z,1029.80
2023-02-17T05:47:26.117Z,1029.76
2023-02-17T05:48:26.106Z,1029.80
2023-02-17T05:49:26.699Z,1029.89
2023-02-17T05:50:28.097Z,1029.84
2023-02-17T05:51:28.714Z,1029.77
2023-02-17T05:52:29.295Z,1029.78
2023-02-17T05:53:29.900Z,1029.79
2023-02-17T05:54:30.580Z,1029.85
2023-02-17T05:55:31.249Z,1029.84
2023-02-17T05:56:31.847Z,1029.86
2023-02-17T05:57:32.503Z,1029.84
2023-02-17T05:58:33.104Z,1029.86
2023-02-17T05:59:33.707Z,1029.89
2023-02-17T06:00:34.307Z,1029.91
2023-02-17T06:01:37.124Z,1029.87
2023-02-17T06:02:36.488Z,1029.88
2023-02-17T06:03:37.092Z,1029.81
2023-02-17T06:04:37.938Z,1029.78
2023-02-17T06:05:38.661Z,1029.81
2023-02-17T06:06:39.347Z,1029.83
2023-02-17T06:07:39.998Z,1029.83
2023-02-17T06:08:40.604Z,1029.87
2023-02-17T06:09:41.196Z,1029.86
2023-02-17T06:10:42.635Z,1029.87
2023-02-17T06:11:43.231Z,1029.86
2023-02-17T06:12:43.849Z,1029.91
2023-02-17T06:13:44.434Z,1029.82
2023-02-17T06:14:45.029Z,1029.85
2023-02-17T06:15:45.642Z,1029.86
2023-02-17T06:16:46.226Z,1029.90
2023-02-17T06:17:46.828Z,1029.85
2023-02-17T06:18:48.291Z,1029.82
2023-02-17T06:19:48.888Z,1029.95
2023-02-17T06:20:49.494Z,1029.91
2023-02-17T06:21:50.094Z,1029.87
2023-02-17T06:22:50.704Z,1029.88
2023-02-17T06:23:51.374Z,1029.93
2023-02-17T06:24:52.073Z,1029.83
2023-02-17T06:25:52.655Z,1029.86
2023-02-17T06:26:53.259Z,1029.85
2023-02-17T06:27:53.855Z,1029.89
2023-02-17T06:28:54.456Z,1029.85
2023-02-17T06:29:55.091Z,1029.91
2023-02-17T06:30:56.574Z,1029.82
2023-02-17T06:31:57.258Z,1029.78
2023-02-17T06:32:57.919Z,1029.83
2023-02-17T06:33:58.563Z,1029.81
2023-02-17T06:34:59.265Z,1029.76
2023-02-17T06:35:59.862Z,1029.85
2023-02-17T06:37:00.475Z,1029.76
2023-02-17T06:38:01.140Z,1029.77
2023-02-17T06:39:01.728Z,1029.80
2023-02-17T06:40:02.344Z,1029.77
2023-02-17T06:41:02.929Z,1029.77
2023-02-17T06:42:03.563Z,1029.75
2023-02-17T06:43:04.157Z,1029.78
2023-02-17T06:44:04.760Z,1029.77
2023-02-17T06:45:05.369Z,1029.77
2023-02-17T06:46:06.433Z,1029.75
2023-02-17T06:47:07.244Z,1029.74
2023-02-17T06:48:07.859Z,1029.75
2023-02-17T06:49:08.444Z,1029.70
2023-02-17T06:50:09.039Z,1029.75
2023-02-17T06:51:09.644Z,1029.74
2023-02-17T06:52:10.253Z,1029.77
2023-02-17T06:53:10.845Z,1029.79
2023-02-17T06:54:11.443Z,1029.75
2023-02-17T06:55:12.041Z,1029.77
2023-02-17T06:56:12.639Z,1029.81
2023-02-17T06:57:13.229Z,1029.87
2023-02-17T06:58:13.824Z,1029.85
2023-02-17T06:59:14.484Z,1029.85
2023-02-17T07:00:15.138Z,1029.90
2023-02-17T07:01:15.751Z,1029.90
2023-02-17T07:02:16.392Z,1029.98
2023-02-17T07:03:17.012Z,1029.87
2023-02-17T07:04:17.621Z,1029.89
2023-02-17T07:05:18.219Z,1029.94
2023-02-17T07:06:18.823Z,1029.91
2023-02-17T07:07:19.427Z,1029.92
2023-02-17T07:08:20.027Z,1029.99
2023-02-17T07:09:20.641Z,1029.97
2023-02-17T07:10:21.300Z,1029.94
2023-02-17T07:11:21.956Z,1029.86
2023-02-17T07:12:22.553Z,1029.96
2023-02-17T07:13:23.228Z,1029.87
2023-02-17T07:14:25.009Z,1029.93
2023-02-17T07:15:25.428Z,1029.87
2023-02-17T07:16:26.052Z,1029.91
2023-02-17T07:17:26.647Z,1029.89
2023-02-17T07:18:27.237Z,1029.89
2023-02-17T07:19:27.837Z,1029.82
2023-02-17T07:20:28.504Z,1029.91
2023-02-17T07:21:29.093Z,1029.89
2023-02-17T07:22:29.698Z,1029.96
2023-02-17T07:23:30.306Z,1029.87
2023-02-17T07:24:30.906Z,1029.93
2023-02-17T07:25:31.492Z,1029.93
2023-02-17T07:26:32.091Z,1029.94
2023-02-17T07:27:32.686Z,1029.94
2023-02-17T07:28:33.278Z,1029.93
2023-02-17T07:29:33.884Z,1030.00
2023-02-17T07:30:34.520Z,1030.00
2023-02-17T07:31:36.012Z,1030.00
2023-02-17T07:32:36.637Z,1030.03
2023-02-17T07:33:37.308Z,1030.08
2023-02-17T07:34:37.968Z,1030.04
2023-02-17T07:35:38.560Z,1030.11
2023-02-17T07:36:39.206Z,1030.10
2023-02-17T07:37:39.809Z,1030.09
2023-02-17T07:38:40.409Z,1030.10
2023-02-17T07:39:41.054Z,1030.09
2023-02-17T07:40:42.451Z,1030.12
2023-02-17T07:41:43.105Z,1030.13
2023-02-17T07:42:43.764Z,1030.14
2023-02-17T07:43:44.367Z,1030.21
2023-02-17T07:44:44.969Z,1030.14
2023-02-17T07:45:45.653Z,1030.24
2023-02-17T07:46:46.243Z,1030.21
2023-02-17T07:47:46.835Z,1030.27
2023-02-17T07:48:47.430Z,1030.25
2023-02-17T07:49:48.040Z,1030.23
2023-02-17T07:50:48.636Z,1030.27
2023-02-17T07:51:49.231Z,1030.23
2023-02-17T07:52:49.832Z,1030.29
2023-02-17T07:53:50.434Z,1030.29
2023-02-17T07:54:51.033Z,1030.34
2023-02-17T07:55:51.638Z,1030.27
2023-02-17T07:56:52.237Z,1030.31
2023-02-17T07:57:52.828Z,1030.33
2023-02-17T07:58:53.431Z,1030.30
2023-02-17T07:59:54.037Z,1030.26
2023-02-17T08:00:54.631Z,1030.28
2023-02-17T08:01:55.253Z,1030.28
2023-02-17T08:02:55.911Z,1030.28
2023-02-17T08:03:56.541Z,1030.30
2023-02-17T08:04:57.148Z,1030.26
2023-02-17T08:05:57.747Z,1030.27
2023-02-17T08:06:58.350Z,1030.32
2023-02-17T08:07:59.005Z,1030.32
2023-02-17T08:08:59.609Z,1030.23
2023-02-17T08:10:00.227Z,1030.24
2023-02-17T08:11:00.816Z,1030.20
2023-02-17T08:12:01.422Z,1030.22
2023-02-17T08:13:02.872Z,1030.22
2023-02-17T08:14:03.474Z,1030.29
2023-02-17T08:15:04.070Z,1030.24
2023-02-17T08:16:05.145Z,1030.24
2023-02-17T08:17:05.982Z,1030.19
2023-02-17T08:18:06.587Z,1030.26
2023-02-17T08:19:07.676Z,1030.26
2023-02-17T08:20:09.320Z,1030.26
2023-02-17T08:21:09.985Z,1030.19
2023-02-17T08:22:10.608Z,1030.26
2023-02-17T08:23:11.208Z,1030.22
2023-02-17T08:24:11.818Z,1030.24
2023-02-17T08:25:12.475Z,1030.21
2023-02-17T08:26:13.066Z,1030.21
2023-02-17T08:27:13.658Z,1030.24
2023-02-17T08:28:14.283Z,1030.31
2023-02-17T08:29:14.866Z,1030.18
2023-02-17T08:30:15.511Z,1030.27
2023-02-17T08:31:16.249Z,1030.26
2023-02-17T08:32:16.956Z,1030.22
2023-02-17T08:33:17.616Z,1030.22
2023-02-17T08:34:18.264Z,1030.28
2023-02-17T08:35:18.900Z,1030.30
2023-02-17T08:36:19.479Z,1030.23
2023-02-17T08:37:20.092Z,1030.15
2023-02-17T08:38:20.671Z,1030.17
2023-02-17T08:39:21.355Z,1030.16
2023-02-17T08:40:21.935Z,1030.20
2023-02-17T08:41:22.543Z,1030.17
2023-02-17T08:42:23.146Z,1030.16
2023-02-17T08:43:23.773Z,1030.18
2023-02-17T08:44:24.502Z,1030.14
2023-02-17T08:45:25.107Z,1030.07
2023-02-17T08:46:26.658Z,1030.13
2023-02-17T08:47:27.283Z,1030.10
2023-02-17T08:48:27.924Z,1030.13
2023-02-17T08:49:28.571Z,1030.15
2023-02-17T08:50:29.198Z,1030.15
2023-02-17T08:51:29.821Z,1030.12
2023-02-17T08:52:30.402Z,1030.12
2023-02-17T08:53:31.046Z,1030.22
2023-02-17T08:54:31.629Z,1030.16
2023-02-17T08:55:44.113Z,1030.18
2023-02-17T08:56:33.860Z,1030.19
2023-02-17T08:57:34.487Z,1030.24
2023-02-17T08:58:35.200Z,1030.23
2023-02-17T08:59:35.886Z,1030.23
2023-02-17T09:00:36.468Z,1030.18
2023-02-17T09:01:37.082Z,1030.24
2023-02-17T09:02:37.703Z,1030.22
2023-02-17T09:03:38.326Z,1030.24
2023-02-17T09:04:38.972Z,1030.32
2023-02-17T09:05:39.560Z,1030.23
2023-02-17T09:06:40.164Z,1030.25
2023-02-17T09:07:40.797Z,1030.27
2023-02-17T09:08:41.435Z,1030.32
2023-02-17T09:09:42.072Z,1030.33
2023-02-17T09:10:42.666Z,1030.37
2023-02-17T09:11:43.291Z,1030.40
2023-02-17T09:12:44.006Z,1030.41
2023-02-17T09:13:44.590Z,1030.45
2023-02-17T09:14:45.185Z,1030.49
2023-02-17T09:15:45.816Z,1030.51
2023-02-17T09:16:46.452Z,1030.50
2023-02-17T09:17:47.079Z,1030.53
2023-02-17T09:18:47.684Z,1030.60
2023-02-17T09:19:48.364Z,1030.50
2023-02-17T09:20:49.074Z,1030.60
2023-02-17T09:21:49.688Z,1030.52
2023-02-17T09:22:51.497Z,1030.50
2023-02-17T09:23:51.933Z,1030.59
2023-02-17T09:24:52.532Z,1030.53
2023-02-17T09:25:53.152Z,1030.48
2023-02-17T09:26:53.751Z,1030.47
2023-02-17T09:27:54.333Z,1030.45
2023-02-17T09:28:54.936Z,1030.46
2023-02-17T09:29:55.610Z,1030.46
2023-02-17T09:30:56.378Z,1030.42
2023-02-17T09:31:57.120Z,1030.44
2023-02-17T09:32:57.761Z,1030.51
2023-02-17T09:33:58.375Z,1030.51
2023-02-17T09:34:58.977Z,1030.48
2023-02-17T09:35:59.615Z,1030.41
2023-02-17T09:37:00.992Z,1030.51
2023-02-17T09:38:01.661Z,1030.55
2023-02-17T09:39:02.314Z,1030.55
2023-02-17T09:40:02.915Z,1030.49
2023-02-17T09:41:03.571Z,1030.55
2023-02-17T09:42:04.247Z,1030.43
2023-02-17T09:43:04.852Z,1030.49
2023-02-17T09:44:05.456Z,1030.55
2023-02-17T09:45:06.065Z,1030.42
2023-02-17T09:46:07.098Z,1030.43
2023-02-17T09:47:07.572Z,1030.42
2023-02-17T09:48:08.271Z,1030.38
2023-02-17T09:49:08.857Z,1030.43
2023-02-17T09:50:09.558Z,1030.45
2023-02-17T09:51:12.497Z,1030.37
2023-02-17T09:52:11.785Z,1030.37
2023-02-17T09:53:12.446Z,1030.32
2023-02-17T09:54:13.850Z,1030.43
2023-02-17T09:55:14.515Z,1030.31
2023-02-17T09:56:15.103Z,1030.37
2023-02-17T09:57:15.772Z,1030.30
2023-02-17T09:58:16.472Z,1030.29
2023-02-17T09:59:17.075Z,1030.28
2023-02-17T10:00:17.666Z,1030.32
2023-02-17T10:01:18.281Z,1030.34
2023-02-17T10:02:18.968Z,1030.32
2023-02-17T10:03:19.615Z,1030.34
2023-02-17T10:04:20.401Z,1030.38
2023-02-17T10:05:20.983Z,1030.32
2023-02-17T10:06:21.660Z,1030.37
2023-02-17T10:07:22.253Z,1030.35
2023-02-17T10:08:22.940Z,1030.32
2023-02-17T10:09:23.551Z,1030.38
2023-02-17T10:10:24.141Z,1030.39
2023-02-17T10:11:24.746Z,1030.41
2023-02-17T10:12:25.458Z,1030.37
2023-02-17T10:13:26.041Z,1030.30
2023-02-17T10:14:26.671Z,1030.32
2023-02-17T10:15:27.286Z,1030.20
2023-02-17T10:16:28.009Z,1030.24
2023-02-17T10:17:28.638Z,1030.35
2023-02-17T10:18:29.349Z,1030.37
2023-02-17T10:19:30.002Z,1030.39
2023-02-17T10:20:30.592Z,1030.34
2023-02-17T10:21:31.245Z,1030.25
2023-02-17T10:22:31.834Z,1030.33
2023-02-17T10:23:32.438Z,1030.25
2023-02-17T10:24:33.017Z,1030.30
2023-02-17T10:25:33.623Z,1030.25
2023-02-17T10:26:34.234Z,1030.25
2023-02-17T10:27:35.023Z,1030.24
2023-02-17T10:28:35.646Z,1030.29
2023-02-17T10:29:36.317Z,1030.27
2023-02-17T10:30:37.009Z,1030.27
2023-02-17T10:31:37.823Z,1030.41
2023-02-17T10:32:38.512Z,1030.29
2023-02-17T10:33:39.134Z,1030.37
2023-02-17T10:34:39.772Z,1030.26
2023-02-17T10:35:40.380Z,1030.31
2023-02-17T10:36:41.019Z,1030.26
2023-02-17T10:37:41.610Z,1030.32
2023-02-17T10:38:42.218Z,1030.38
2023-02-17T10:39:42.823Z,1030.21
2023-02-17T10:40:43.429Z,1030.21
2023-02-17T10:41:44.023Z,1030.24
2023-02-17T10:42:44.626Z,1030.24
2023-02-17T10:43:45.286Z,1030.19
2023-02-17T10:44:45.983Z,1030.16
2023-02-17T10:45:46.620Z,1030.21
2023-02-17T10:46:47.298Z,1030.22
2023-02-17T10:47:47.897Z,1030.21
2023-02-17T10:48:48.509Z,1030.11
2023-02-17T10:49:49.137Z,1030.15
2023-02-17T10:50:49.742Z,1030.18
2023-02-17T10:51:50.328Z,1030.08
2023-02-17T10:52:51.054Z,1030.13
2023-02-17T10:53:51.726Z,1030.13
2023-02-17T10:54:52.382Z,1030.13
2023-02-17T10:55:53.040Z,1030.10
2023-02-17T10:56:53.637Z,1030.08
2023-02-17T10:57:54.257Z,1030.09
2023-02-17T10:58:54.886Z,1030.02
2023-02-17T10:59:56.346Z,1030.03
2023-02-17T11:00:57.036Z,1030.01
2023-02-17T11:01:57.675Z,1030.09
2023-02-17T11:02:58.275Z,1030.11
2023-02-17T11:03:58.878Z,1030.04
2023-02-17T11:04:59.516Z,1030.07
2023-02-17T11:06:00.136Z,1030.06
2023-02-17T11:07:00.765Z,1030.02
2023-02-17T11:08:01.384Z,1030.05
2023-02-17T11:09:02.042Z,1030.05
2023-02-17T11:10:02.654Z,1030.16
2023-02-17T11:11:03.300Z,1030.11
2023-02-17T11:12:03.905Z,1030.04
2023-02-17T11:13:04.530Z,1030.01
2023-02-17T11:14:05.106Z,1030.11
2023-02-17T11:15:05.704Z,1030.13
2023-02-17T11:16:06.734Z,1030.16
2023-02-17T11:17:07.499Z,1030.09
2023-02-17T11:18:08.422Z,1030.13
2023-02-17T11:19:09.172Z,1030.17
2023-02-17T11:20:10.159Z,1030.18
2023-02-17T11:21:10.891Z,1030.16
2023-02-17T11:22:13.012Z,1030.23
2023-02-17T11:23:13.188Z,1030.25
2023-02-17T11:24:13.800Z,1030.23
2023-02-17T11:25:14.397Z,1030.10
2023-02-17T11:26:14.998Z,1030.15
2023-02-17T11:27:15.603Z,1030.11
2023-02-17T11:28:16.250Z,1030.14
2023-02-17T11:29:16.847Z,1030.13
2023-02-17T11:30:17.490Z,1030.14
2023-02-17T11:31:18.124Z,1030.05
2023-02-17T11:32:18.759Z,1030.09
2023-02-17T11:33:19.372Z,1030.11
2023-02-17T11:34:19.975Z,1030.10
2023-02-17T11:35:20.604Z,1030.08
2023-02-17T11:36:21.190Z,1030.10
2023-02-17T11:37:21.829Z,1030.10
2023-02-17T11:38:22.478Z,1030.10
2023-02-17T11:39:23.128Z,1030.01
2023-02-17T11:40:26.073Z,1029.98
2023-02-17T11:41:25.323Z,1030.04
2023-02-17T11:42:25.913Z,1029.95
2023-02-17T11:43:26.517Z,1029.87
2023-02-17T11:44:27.113Z,1029.90
2023-02-17T11:45:27.770Z,1029.86
2023-02-17T11:46:28.360Z,1029.86
2023-02-17T11:47:28.963Z,1029.87
2023-02-17T11:48:29.618Z,1029.84
2023-02-17T11:49:30.230Z,1029.82
2023-02-17T11:50:40.893Z,1029.88
2023-02-17T11:51:32.493Z,1029.90
2023-02-17T11:52:33.105Z,1029.87
2023-02-17T11:53:33.744Z,1029.93
2023-02-17T11:54:34.339Z,1029.81
2023-02-17T11:55:34.935Z,1029.72
2023-02-17T11:56:35.551Z,1029.81
2023-02-17T11:57:36.206Z,1029.79
2023-02-17T11:58:36.923Z,1029.85
2023-02-17T11:59:37.519Z,1029.93
2023-02-17T12:00:38.121Z,1029.88
2023-02-17T12:01:38.767Z,1029.83
2023-02-17T12:02:39.372Z,1029.84
2023-02-17T12:03:40.038Z,1029.83
2023-02-17T12:04:40.737Z,1029.87
2023-02-17T12:05:41.400Z,1029.81
2023-02-17T12:06:42.007Z,1029.87
2023-02-17T12:07:42.601Z,1029.78
2023-02-17T12:08:44.188Z,1029.84
2023-02-17T12:09:44.977Z,1029.77
2023-02-17T12:10:45.581Z,1029.72
2023-02-17T12:11:46.177Z,1029.69
2023-02-17T12:12:46.840Z,1029.66
2023-02-17T12:13:47.458Z,1029.68
2023-02-17T12:14:48.042Z,1029.69
2023-02-17T12:15:48.654Z,1029.62
2023-02-17T12:16:49.253Z,1029.70
2023-02-17T12:17:49.838Z,1029.62
2023-02-17T12:18:50.434Z,1029.67
2023-02-17T12:19:51.037Z,1029.64
2023-02-17T12:20:51.624Z,1029.64
2023-02-17T12:21:52.221Z,1029.57
2023-02-17T12:22:52.826Z,1029.61
2023-02-17T12:23:53.430Z,1029.53
2023-02-17T12:24:54.026Z,1029.54
2023-02-17T12:25:54.624Z,1029.48
2023-02-17T12:26:55.219Z,1029.50
2023-02-17T12:27:55.822Z,1029.52
2023-02-17T12:28:56.417Z,1029.45
2023-02-17T12:29:57.052Z,1029.47
2023-02-17T12:30:57.934Z,1029.48
2023-02-17T12:31:58.759Z,1029.53
2023-02-17T12:32:59.456Z,1029.47
2023-02-17T12:34:00.108Z,1029.42
2023-02-17T12:35:01.545Z,1029.42
2023-02-17T12:36:02.152Z,1029.38
2023-02-17T12:37:02.754Z,1029.40
2023-02-17T12:38:03.352Z,1029.42
2023-02-17T12:39:03.961Z,1029.29
2023-02-17T12:40:04.567Z,1029.25
2023-02-17T12:41:05.172Z,1029.34
2023-02-17T12:42:05.763Z,1029.24
2023-02-17T12:43:06.366Z,1029.24
2023-02-17T12:44:06.968Z,1029.25
2023-02-17T12:45:07.559Z,1029.14
2023-02-17T12:46:08.605Z,1029.15
2023-02-17T12:47:08.838Z,1029.16
2023-02-17T12:48:09.437Z,1029.24
2023-02-17T12:49:10.044Z,1029.21
2023-02-17T12:50:10.651Z,1029.21
2023-02-17T12:51:11.258Z,1029.13
2023-02-17T12:52:11.900Z,1029.14
2023-02-17T12:53:12.505Z,1029.15
2023-02-17T12:54:13.110Z,1029.15
2023-02-17T12:55:14.705Z,1029.14
2023-02-17T12:56:15.312Z,1029.07
2023-02-17T12:57:15.909Z,1029.01
2023-02-17T12:58:16.521Z,1029.02
2023-02-17T12:59:17.120Z,1029.09
2023-02-17T13:00:17.724Z,1029.01
2023-02-17T13:01:18.334Z,1028.96
2023-02-17T13:02:18.960Z,1029.05
2023-02-17T13:03:19.595Z,1029.00
2023-02-17T13:04:20.212Z,1029.06
2023-02-17T13:05:20.807Z,1029.05
2023-02-17T13:06:21.405Z,1029.03
2023-02-17T13:07:22.027Z,1029.04
2023-02-17T13:08:22.696Z,1029.03
2023-02-17T13:09:23.294Z,1029.04
2023-02-17T13:10:23.901Z,1028.96
2023-02-17T13:11:24.503Z,1028.94
2023-02-17T13:12:25.099Z,1028.97
2023-02-17T13:13:25.697Z,1028.80
2023-02-17T13:14:26.293Z,1029.00
2023-02-17T13:15:26.911Z,1028.88
2023-02-17T13:16:27.507Z,1028.87
2023-02-17T13:17:28.119Z,1028.94
2023-02-17T13:18:28.783Z,1028.96
2023-02-17T13:19:29.380Z,1028.97
2023-02-17T13:20:29.985Z,1028.99
2023-02-17T13:21:30.593Z,1028.89
2023-02-17T13:22:31.195Z,1028.90
2023-02-17T13:23:31.792Z,1028.80
2023-02-17T13:24:32.397Z,1028.79
2023-02-17T13:25:32.999Z,1028.88
2023-02-17T13:26:33.610Z,1028.82
2023-02-17T13:27:34.213Z,1028.79
2023-02-17T13:28:34.808Z,1028.85
2023-02-17T13:29:35.410Z,1028.79
2023-02-17T13:30:36.021Z,1028.81
2023-02-17T13:31:37.704Z,1028.87
2023-02-17T13:32:38.220Z,1028.78
2023-02-17T13:33:39.671Z,1028.75
2023-02-17T13:34:40.327Z,1028.74